Terminal Aerodrome Forecast
Issued by NWS Mt. Holly, NJ

Home | Current Version | Previous Version | Text Only | Print | Product List | Glossary On
Versions: 1 2 3 4 5 6 7 8 9 10 11 12 13 14 15 16 17 18 19 20 21 22 23 24 25 26
000
FTUS41 KPHI 010141 CCA
TAFPHL
TAF COR
KPHL 010141Z 0102/0206 15005KT P6SM SCT250
      TEMPO 0108/0111 3SM BR
     FM011400 10007KT P6SM BKN250
     FM012300 12008KT P6SM SKC=

USA.gov is the U.S. government's official web portal to all federal, state and local government web resources and services.